Terminal Aerodrome Forecast
Issued by NWS Sioux Falls, SD

Home | Current Version | Previous Version | Text Only | Print | Product List | Glossary On
Versions: 1 2 3 4 5 6 7 8 9 10 11 12 13 14 15
000
FTUS43 KFSD 281227 AAA
TAFFSD
TAF AMD
KFSD 281227Z 2812/2912 01007KT P6SM FEW020
     FM281420 36008KT P6SM BKN015
     FM281700 36013KT P6SM SCT025
     FM282000 03009KT P6SM SCT035
     FM290000 02006KT P6SM FEW250=

USA.gov is the U.S. government's official web portal to all federal, state and local government web resources and services.